sensor_id;sensor_type;location;lat;lon;timestamp;pressure;altitude;pressure_sealevel;temperature;humidity
7986;BME280;4038;42.612;23.066;2022-09-25T00:01:06;93409.47;;;10.77;65.03
7986;BME280;4038;42.612;23.066;2022-09-25T00:03:32;93403.06;;;10.96;64.04
7986;BME280;4038;42.612;23.066;2022-09-25T00:06:03;93404.72;;;11.25;63.64
7986;BME280;4038;42.612;23.066;2022-09-25T00:08:29;93405.72;;;11.22;63.46
7986;BME280;4038;42.612;23.066;2022-09-25T00:10:55;93398.78;;;11.38;63.27
7986;BME280;4038;42.612;23.066;2022-09-25T00:13:21;93399.03;;;11.34;63.43
7986;BME280;4038;42.612;23.066;2022-09-25T00:15:54;93387.16;;;11.71;62.53
7986;BME280;4038;42.612;23.066;2022-09-25T00:18:21;93395.88;;;11.05;64.30
7986;BME280;4038;42.612;23.066;2022-09-25T00:21:09;93398.75;;;11.32;63.21
7986;BME280;4038;42.612;23.066;2022-09-25T00:23:36;93402.66;;;10.67;64.48
7986;BME280;4038;42.612;23.066;2022-09-25T00:26:02;93405.69;;;10.74;64.81
7986;BME280;4038;42.612;23.066;2022-09-25T00:28:30;93390.09;;;10.49;65.10
7986;BME280;4038;42.612;23.066;2022-09-25T00:30:56;93394.03;;;10.42;65.65
7986;BME280;4038;42.612;23.066;2022-09-25T00:33:22;93395.31;;;10.52;65.25
7986;BME280;4038;42.612;23.066;2022-09-25T00:35:47;93389.94;;;10.32;66.19
7986;BME280;4038;42.612;23.066;2022-09-25T00:38:13;93404.75;;;10.46;65.53
7986;BME280;4038;42.612;23.066;2022-09-25T00:40:38;93385.06;;;10.84;64.40
7986;BME280;4038;42.612;23.066;2022-09-25T00:43:11;93381.63;;;10.52;65.72
7986;BME280;4038;42.612;23.066;2022-09-25T00:45:38;93376.13;;;9.90;66.96
7986;BME280;4038;42.612;23.066;2022-09-25T00:48:05;93374.69;;;10.26;66.08
7986;BME280;4038;42.612;23.066;2022-09-25T00:50:35;93370.66;;;9.90;66.50
7986;BME280;4038;42.612;23.066;2022-09-25T00:53:07;93375.16;;;10.18;66.33
7986;BME280;4038;42.612;23.066;2022-09-25T00:55:36;93362.94;;;9.62;68.25
7986;BME280;4038;42.612;23.066;2022-09-25T00:58:03;93362.59;;;9.55;68.45
7986;BME280;4038;42.612;23.066;2022-09-25T01:00:30;93366.88;;;9.87;67.46
7986;BME280;4038;42.612;23.066;2022-09-25T01:02:56;93366.09;;;9.81;67.49
7986;BME280;4038;42.612;23.066;2022-09-25T01:05:35;93364.88;;;9.56;69.31
7986;BME280;4038;42.612;23.066;2022-09-25T01:08:03;93358.97;;;9.95;68.03
7986;BME280;4038;42.612;23.066;2022-09-25T01:10:30;93355.31;;;10.03;67.27
7986;BME280;4038;42.612;23.066;2022-09-25T01:12:56;93338.56;;;9.96;66.75
7986;BME280;4038;42.612;23.066;2022-09-25T01:15:48;93358.91;;;10.15;67.09
7986;BME280;4038;42.612;23.066;2022-09-25T01:18:21;93357.31;;;10.03;67.34
7986;BME280;4038;42.612;23.066;2022-09-25T01:32:04;93350.84;;;9.49;70.80
7986;BME280;4038;42.612;23.066;2022-09-25T01:39:46;93365.09;;;10.10;69.05
7986;BME280;4038;42.612;23.066;2022-09-25T01:42:21;93361.00;;;9.68;69.60
7986;BME280;4038;42.612;23.066;2022-09-25T01:44:53;93362.38;;;9.84;69.04
7986;BME280;4038;42.612;23.066;2022-09-25T01:47:29;93358.53;;;9.70;69.27
7986;BME280;4038;42.612;23.066;2022-09-25T01:50:00;93365.44;;;9.92;68.73
7986;BME280;4038;42.612;23.066;2022-09-25T01:52:36;93360.91;;;9.89;68.50
7986;BME280;4038;42.612;23.066;2022-09-25T01:55:11;93361.84;;;9.54;69.07
7986;BME280;4038;42.612;23.066;2022-09-25T01:57:42;93359.69;;;9.38;69.54
7986;BME280;4038;42.612;23.066;2022-09-25T02:00:16;93351.47;;;9.38;68.67
7986;BME280;4038;42.612;23.066;2022-09-25T02:02:54;93355.34;;;9.77;68.51
7986;BME280;4038;42.612;23.066;2022-09-25T02:05:33;93363.53;;;9.26;70.29
7986;BME280;4038;42.612;23.066;2022-09-25T02:08:07;93353.22;;;9.35;70.14
7986;BME280;4038;42.612;23.066;2022-09-25T02:10:36;93350.56;;;8.80;72.59
7986;BME280;4038;42.612;23.066;2022-09-25T02:13:08;93362.16;;;9.36;71.05
7986;BME280;4038;42.612;23.066;2022-09-25T02:15:39;93364.13;;;9.56;70.54
7986;BME280;4038;42.612;23.066;2022-09-25T02:18:12;93358.91;;;9.58;70.49
7986;BME280;4038;42.612;23.066;2022-09-25T02:20:59;93368.78;;;9.29;71.07
7986;BME280;4038;42.612;23.066;2022-09-25T02:26:06;93366.09;;;9.55;70.07
7986;BME280;4038;42.612;23.066;2022-09-25T02:28:33;93380.75;;;8.86;72.63
7986;BME280;4038;42.612;23.066;2022-09-25T02:31:01;93363.97;;;8.98;72.75
7986;BME280;4038;42.612;23.066;2022-09-25T02:33:27;93376.81;;;8.72;71.07
7986;BME280;4038;42.612;23.066;2022-09-25T02:35:53;93373.66;;;8.09;74.39
7986;BME280;4038;42.612;23.066;2022-09-25T02:38:19;93365.47;;;7.80;74.64
7986;BME280;4038;42.612;23.066;2022-09-25T02:40:52;93364.44;;;8.56;72.77
7986;BME280;4038;42.612;23.066;2022-09-25T02:43:51;93369.69;;;9.00;70.46
7986;BME280;4038;42.612;23.066;2022-09-25T02:49:04;93374.22;;;8.63;72.24
7986;BME280;4038;42.612;23.066;2022-09-25T02:51:45;93360.91;;;8.36;72.82
7986;BME280;4038;42.612;23.066;2022-09-25T02:56:51;93360.16;;;8.90;71.44
7986;BME280;4038;42.612;23.066;2022-09-25T02:59:22;93356.59;;;9.05;71.05
7986;BME280;4038;42.612;23.066;2022-09-25T03:01:50;93350.25;;;8.93;71.16
7986;BME280;4038;42.612;23.066;2022-09-25T03:04:17;93335.38;;;9.46;68.98
7986;BME280;4038;42.612;23.066;2022-09-25T03:06:45;93358.84;;;9.52;69.05
7986;BME280;4038;42.612;23.066;2022-09-25T03:09:12;93338.56;;;9.64;68.76
7986;BME280;4038;42.612;23.066;2022-09-25T03:11:39;93334.03;;;9.61;68.12
7986;BME280;4038;42.612;23.066;2022-09-25T03:14:06;93337.94;;;9.80;67.83
7986;BME280;4038;42.612;23.066;2022-09-25T03:16:52;93339.34;;;10.02;67.02
7986;BME280;4038;42.612;23.066;2022-09-25T03:19:21;93342.28;;;9.93;67.56
7986;BME280;4038;42.612;23.066;2022-09-25T03:21:49;93344.31;;;9.98;67.06
7986;BME280;4038;42.612;23.066;2022-09-25T03:24:15;93349.00;;;9.66;67.83
7986;BME280;4038;42.612;23.066;2022-09-25T03:26:41;93356.91;;;9.32;69.19
7986;BME280;4038;42.612;23.066;2022-09-25T03:29:07;93327.50;;;8.87;69.98
7986;BME280;4038;42.612;23.066;2022-09-25T03:31:33;93355.50;;;8.96;70.46
7986;BME280;4038;42.612;23.066;2022-09-25T03:33:59;93360.16;;;8.90;70.51
7986;BME280;4038;42.612;23.066;2022-09-25T03:36:26;93354.38;;;9.09;70.11
7986;BME280;4038;42.612;23.066;2022-09-25T03:38:54;93346.59;;;9.01;70.60
7986;BME280;4038;42.612;23.066;2022-09-25T03:41:25;93360.78;;;9.00;70.63
7986;BME280;4038;42.612;23.066;2022-09-25T03:43:51;93359.31;;;8.64;72.15
7986;BME280;4038;42.612;23.066;2022-09-25T03:46:24;93360.50;;;8.78;72.17
7986;BME280;4038;42.612;23.066;2022-09-25T03:48:50;93336.75;;;8.49;72.07
7986;BME280;4038;42.612;23.066;2022-09-25T03:51:16;93366.09;;;8.69;71.92
7986;BME280;4038;42.612;23.066;2022-09-25T03:53:43;93375.59;;;8.38;73.44
7986;BME280;4038;42.612;23.066;2022-09-25T03:56:12;93374.06;;;8.52;73.16
7986;BME280;4038;42.612;23.066;2022-09-25T03:58:37;93369.03;;;7.86;74.79
7986;BME280;4038;42.612;23.066;2022-09-25T04:01:03;93356.16;;;7.72;75.37
7986;BME280;4038;42.612;23.066;2022-09-25T04:03:30;93371.28;;;8.32;73.65
7986;BME280;4038;42.612;23.066;2022-09-25T04:05:59;93370.72;;;8.28;74.22
7986;BME280;4038;42.612;23.066;2022-09-25T04:08:26;93363.56;;;8.15;74.48
7986;BME280;4038;42.612;23.066;2022-09-25T04:10:56;93366.66;;;8.38;73.89
7986;BME280;4038;42.612;23.066;2022-09-25T04:13:25;93367.25;;;8.82;72.08
7986;BME280;4038;42.612;23.066;2022-09-25T04:15:50;93347.97;;;8.36;72.73
7986;BME280;4038;42.612;23.066;2022-09-25T04:18:16;93351.50;;;9.18;70.09
7986;BME280;4038;42.612;23.066;2022-09-25T04:20:42;93356.47;;;9.39;69.11
7986;BME280;4038;42.612;23.066;2022-09-25T04:23:07;93364.72;;;9.19;69.80
7986;BME280;4038;42.612;23.066;2022-09-25T04:25:33;93356.22;;;9.17;69.47
7986;BME280;4038;42.612;23.066;2022-09-25T04:27:58;93370.28;;;9.05;69.77
7986;BME280;4038;42.612;23.066;2022-09-25T04:30:26;93374.44;;;8.45;72.25
7986;BME280;4038;42.612;23.066;2022-09-25T04:32:52;93373.34;;;8.37;72.40
7986;BME280;4038;42.612;23.066;2022-09-25T04:35:36;93377.09;;;8.24;72.64
7986;BME280;4038;42.612;23.066;2022-09-25T04:38:02;93383.03;;;8.38;72.85
7986;BME280;4038;42.612;23.066;2022-09-25T04:40:29;93382.75;;;9.31;69.92
7986;BME280;4038;42.612;23.066;2022-09-25T04:42:56;93384.88;;;8.81;71.32
7986;BME280;4038;42.612;23.066;2022-09-25T04:45:21;93387.63;;;8.81;70.97
7986;BME280;4038;42.612;23.066;2022-09-25T04:47:46;93381.06;;;8.93;70.59
7986;BME280;4038;42.612;23.066;2022-09-25T04:50:12;93366.00;;;9.24;69.98
7986;BME280;4038;42.612;23.066;2022-09-25T04:52:37;93367.41;;;9.39;69.34
7986;BME280;4038;42.612;23.066;2022-09-25T04:55:03;93363.34;;;10.07;65.78
7986;BME280;4038;42.612;23.066;2022-09-25T04:57:29;93372.81;;;10.80;63.55
7986;BME280;4038;42.612;23.066;2022-09-25T04:59:54;93379.59;;;10.47;64.28
7986;BME280;4038;42.612;23.066;2022-09-25T05:02:19;93377.13;;;11.62;60.92
7986;BME280;4038;42.612;23.066;2022-09-25T05:04:45;93363.31;;;11.29;60.90
7986;BME280;4038;42.612;23.066;2022-09-25T05:07:10;93373.38;;;11.60;60.17
7986;BME280;4038;42.612;23.066;2022-09-25T05:09:36;93382.75;;;12.51;57.88
7986;BME280;4038;42.612;23.066;2022-09-25T05:12:01;93379.59;;;13.22;55.53
7986;BME280;4038;42.612;23.066;2022-09-25T05:14:27;93381.28;;;13.42;54.77
7986;BME280;4038;42.612;23.066;2022-09-25T05:16:55;93363.72;;;13.97;53.00
7986;BME280;4038;42.612;23.066;2022-09-25T05:19:21;93365.19;;;14.63;51.22
7986;BME280;4038;42.612;23.066;2022-09-25T05:21:46;93367.81;;;14.50;51.55
7986;BME280;4038;42.612;23.066;2022-09-25T05:24:11;93355.31;;;13.73;52.42
7986;BME280;4038;42.612;23.066;2022-09-25T05:26:37;93353.94;;;13.96;51.83
7986;BME280;4038;42.612;23.066;2022-09-25T05:29:04;93360.28;;;14.51;50.94
7986;BME280;4038;42.612;23.066;2022-09-25T05:31:30;93359.28;;;14.78;50.38
7986;BME280;4038;42.612;23.066;2022-09-25T05:33:56;93361.94;;;14.89;49.52
7986;BME280;4038;42.612;23.066;2022-09-25T05:36:22;93364.09;;;15.45;48.12
7986;BME280;4038;42.612;23.066;2022-09-25T05:38:47;93358.59;;;15.82;46.80
7986;BME280;4038;42.612;23.066;2022-09-25T05:41:13;93365.97;;;16.62;45.63
7986;BME280;4038;42.612;23.066;2022-09-25T05:43:41;93367.38;;;16.50;45.13
7986;BME280;4038;42.612;23.066;2022-09-25T05:46:08;93370.78;;;16.11;46.30
7986;BME280;4038;42.612;23.066;2022-09-25T05:48:34;93377.72;;;15.18;48.21
7986;BME280;4038;42.612;23.066;2022-09-25T05:51:00;93386.38;;;14.14;51.38
7986;BME280;4038;42.612;23.066;2022-09-25T05:53:26;93388.63;;;13.17;54.97
7986;BME280;4038;42.612;23.066;2022-09-25T05:55:57;93375.84;;;14.54;51.54
7986;BME280;4038;42.612;23.066;2022-09-25T05:58:24;93381.88;;;13.76;53.45
7986;BME280;4038;42.612;23.066;2022-09-25T06:00:50;93378.19;;;12.76;56.06
7986;BME280;4038;42.612;23.066;2022-09-25T06:03:16;93379.72;;;12.66;57.12
7986;BME280;4038;42.612;23.066;2022-09-25T06:05:42;93359.75;;;12.16;58.01
7986;BME280;4038;42.612;23.066;2022-09-25T06:08:12;93369.41;;;11.72;60.14
7986;BME280;4038;42.612;23.066;2022-09-25T06:10:41;93369.72;;;11.96;60.35
7986;BME280;4038;42.612;23.066;2022-09-25T06:13:07;93375.72;;;11.95;59.94
7986;BME280;4038;42.612;23.066;2022-09-25T06:15:37;93375.72;;;12.67;58.52
7986;BME280;4038;42.612;23.066;2022-09-25T06:18:07;93371.56;;;14.17;54.47
7986;BME280;4038;42.612;23.066;2022-09-25T06:20:34;93370.22;;;13.94;54.27
7986;BME280;4038;42.612;23.066;2022-09-25T06:22:59;93367.56;;;13.83;54.63
7986;BME280;4038;42.612;23.066;2022-09-25T06:25:28;93374.66;;;14.43;53.71
7986;BME280;4038;42.612;23.066;2022-09-25T06:27:55;93372.91;;;13.64;56.70
7986;BME280;4038;42.612;23.066;2022-09-25T06:30:23;93382.34;;;13.22;57.88
7986;BME280;4038;42.612;23.066;2022-09-25T06:32:57;93371.47;;;12.49;60.22
7986;BME280;4038;42.612;23.066;2022-09-25T06:35:24;93379.72;;;12.10;62.06
7986;BME280;4038;42.612;23.066;2022-09-25T06:37:50;93370.84;;;11.45;63.90
7986;BME280;4038;42.612;23.066;2022-09-25T06:40:16;93371.72;;;11.79;63.16
7986;BME280;4038;42.612;23.066;2022-09-25T06:42:41;93369.91;;;11.59;63.64
7986;BME280;4038;42.612;23.066;2022-09-25T06:45:07;93366.34;;;11.48;63.70
7986;BME280;4038;42.612;23.066;2022-09-25T06:47:35;93374.19;;;11.83;63.12
7986;BME280;4038;42.612;23.066;2022-09-25T06:50:03;93376.13;;;13.05;60.39
7986;BME280;4038;42.612;23.066;2022-09-25T06:52:29;93364.94;;;14.91;54.91
7986;BME280;4038;42.612;23.066;2022-09-25T06:54:54;93378.63;;;15.88;51.12
7986;BME280;4038;42.612;23.066;2022-09-25T06:57:19;93382.91;;;15.89;51.47
7986;BME280;4038;42.612;23.066;2022-09-25T06:59:45;93382.31;;;15.10;53.28
7986;BME280;4038;42.612;23.066;2022-09-25T07:02:10;93386.97;;;15.64;52.80
7986;BME280;4038;42.612;23.066;2022-09-25T07:04:54;93403.81;;;16.22;51.04
7986;BME280;4038;42.612;23.066;2022-09-25T07:07:20;93396.22;;;16.60;50.29
7986;BME280;4038;42.612;23.066;2022-09-25T07:09:48;93409.78;;;16.26;50.85
7986;BME280;4038;42.612;23.066;2022-09-25T07:12:14;93407.94;;;16.66;49.68
7986;BME280;4038;42.612;23.066;2022-09-25T07:14:41;93417.91;;;18.20;46.09
7986;BME280;4038;42.612;23.066;2022-09-25T07:17:08;93421.03;;;19.33;43.80
7986;BME280;4038;42.612;23.066;2022-09-25T07:19:34;93425.72;;;20.03;42.34
7986;BME280;4038;42.612;23.066;2022-09-25T07:21:59;93424.88;;;20.89;40.03
7986;BME280;4038;42.612;23.066;2022-09-25T07:24:25;93419.00;;;21.54;39.20
7986;BME280;4038;42.612;23.066;2022-09-25T07:26:51;93427.31;;;23.12;36.42
7986;BME280;4038;42.612;23.066;2022-09-25T07:29:17;93420.91;;;23.68;35.35
7986;BME280;4038;42.612;23.066;2022-09-25T07:31:43;93404.03;;;23.76;34.87
7986;BME280;4038;42.612;23.066;2022-09-25T07:34:08;93394.53;;;23.54;35.23
7986;BME280;4038;42.612;23.066;2022-09-25T07:36:37;93399.97;;;24.56;33.89
7986;BME280;4038;42.612;23.066;2022-09-25T07:39:03;93387.66;;;24.95;33.02
7986;BME280;4038;42.612;23.066;2022-09-25T07:41:29;93386.97;;;25.04;32.13
7986;BME280;4038;42.612;23.066;2022-09-25T07:43:56;93352.03;;;24.17;33.26
7986;BME280;4038;42.612;23.066;2022-09-25T07:46:23;93370.25;;;25.43;31.44
7986;BME280;4038;42.612;23.066;2022-09-25T07:48:49;93372.28;;;25.79;30.82
7986;BME280;4038;42.612;23.066;2022-09-25T07:51:15;93369.63;;;25.90;31.20
7986;BME280;4038;42.612;23.066;2022-09-25T07:53:41;93377.75;;;25.96;30.69
7986;BME280;4038;42.612;23.066;2022-09-25T07:56:08;93365.31;;;26.37;30.06
7986;BME280;4038;42.612;23.066;2022-09-25T07:58:36;93368.13;;;26.47;29.13
7986;BME280;4038;42.612;23.066;2022-09-25T08:01:03;93371.56;;;26.36;29.73
7986;BME280;4038;42.612;23.066;2022-09-25T08:03:29;93372.63;;;27.31;27.50
7986;BME280;4038;42.612;23.066;2022-09-25T08:05:59;93375.06;;;27.56;28.43
7986;BME280;4038;42.612;23.066;2022-09-25T08:08:28;93371.06;;;27.59;27.42
7986;BME280;4038;42.612;23.066;2022-09-25T08:11:02;93359.66;;;28.21;26.14
7986;BME280;4038;42.612;23.066;2022-09-25T08:13:29;93357.22;;;27.63;26.92
7986;BME280;4038;42.612;23.066;2022-09-25T08:15:56;93351.16;;;28.75;25.69
7986;BME280;4038;42.612;23.066;2022-09-25T08:18:22;93352.41;;;30.00;24.07
7986;BME280;4038;42.612;23.066;2022-09-25T08:20:47;93335.66;;;30.53;23.54
7986;BME280;4038;42.612;23.066;2022-09-25T08:23:12;93340.69;;;32.14;21.95
7986;BME280;4038;42.612;23.066;2022-09-25T08:25:38;93327.34;;;29.95;24.01
7986;BME280;4038;42.612;23.066;2022-09-25T08:28:03;93322.22;;;30.53;23.48
7986;BME280;4038;42.612;23.066;2022-09-25T08:30:28;93318.44;;;29.28;24.58
7986;BME280;4038;42.612;23.066;2022-09-25T08:32:54;93327.50;;;29.03;24.98
7986;BME280;4038;42.612;23.066;2022-09-25T08:35:19;93339.41;;;27.39;26.65
7986;BME280;4038;42.612;23.066;2022-09-25T08:37:46;93330.69;;;27.04;26.76
7986;BME280;4038;42.612;23.066;2022-09-25T08:40:17;93340.22;;;26.80;26.77
7986;BME280;4038;42.612;23.066;2022-09-25T08:42:44;93344.13;;;26.65;26.80
7986;BME280;4038;42.612;23.066;2022-09-25T08:45:25;93338.22;;;25.00;29.02
7986;BME280;4038;42.612;23.066;2022-09-25T08:48:25;93333.53;;;25.21;28.97
7986;BME280;4038;42.612;23.066;2022-09-25T08:51:11;93342.56;;;26.43;27.05
7986;BME280;4038;42.612;23.066;2022-09-25T08:53:37;93339.59;;;26.31;27.35
7986;BME280;4038;42.612;23.066;2022-09-25T08:56:04;93327.91;;;25.87;28.38
7986;BME280;4038;42.612;23.066;2022-09-25T08:58:40;93342.84;;;25.70;28.13
7986;BME280;4038;42.612;23.066;2022-09-25T09:01:14;93319.63;;;27.58;26.08
7986;BME280;4038;42.612;23.066;2022-09-25T09:04:17;93322.91;;;27.45;26.07
7986;BME280;4038;42.612;23.066;2022-09-25T09:06:44;93330.97;;;27.08;26.76
7986;BME280;4038;42.612;23.066;2022-09-25T09:09:20;93310.91;;;25.85;28.32
7986;BME280;4038;42.612;23.066;2022-09-25T09:11:51;93320.06;;;25.76;27.94
7986;BME280;4038;42.612;23.066;2022-09-25T09:14:21;93313.94;;;25.41;28.03
7986;BME280;4038;42.612;23.066;2022-09-25T09:17:04;93317.59;;;27.40;25.84
7986;BME280;4038;42.612;23.066;2022-09-25T09:19:31;93318.19;;;26.67;27.21
7986;BME280;4038;42.612;23.066;2022-09-25T09:22:10;93312.03;;;25.53;28.96
7986;BME280;4038;42.612;23.066;2022-09-25T09:27:30;93325.09;;;26.16;28.16
7986;BME280;4038;42.612;23.066;2022-09-25T09:30:33;93310.38;;;25.31;29.25
7986;BME280;4038;42.612;23.066;2022-09-25T09:35:36;93311.13;;;25.31;28.52
7986;BME280;4038;42.612;23.066;2022-09-25T09:38:27;93301.13;;;25.57;28.54
7986;BME280;4038;42.612;23.066;2022-09-25T09:44:01;93285.47;;;24.08;29.89
7986;BME280;4038;42.612;23.066;2022-09-25T09:49:35;93285.69;;;23.41;32.08
7986;BME280;4038;42.612;23.066;2022-09-25T09:52:18;93289.88;;;24.28;30.91
7986;BME280;4038;42.612;23.066;2022-09-25T09:54:58;93282.63;;;24.88;30.24
7986;BME280;4038;42.612;23.066;2022-09-25T09:57:26;93295.47;;;25.28;29.55
7986;BME280;4038;42.612;23.066;2022-09-25T09:59:59;93278.09;;;25.58;29.73
7986;BME280;4038;42.612;23.066;2022-09-25T10:02:47;93280.41;;;26.20;27.82
7986;BME280;4038;42.612;23.066;2022-09-25T10:05:38;93280.81;;;25.29;29.01
7986;BME280;4038;42.612;23.066;2022-09-25T10:08:08;93275.97;;;26.36;27.83
7986;BME280;4038;42.612;23.066;2022-09-25T10:13:00;93263.81;;;26.83;27.09
7986;BME280;4038;42.612;23.066;2022-09-25T10:15:34;93284.50;;;26.57;26.88
7986;BME280;4038;42.612;23.066;2022-09-25T10:18:02;93269.59;;;26.86;25.33
7986;BME280;4038;42.612;23.066;2022-09-25T10:20:37;93253.84;;;25.92;26.11
7986;BME280;4038;42.612;23.066;2022-09-25T10:23:05;93270.53;;;25.80;25.96
7986;BME280;4038;42.612;23.066;2022-09-25T10:25:41;93256.31;;;26.17;27.38
7986;BME280;4038;42.612;23.066;2022-09-25T10:30:46;93251.84;;;26.42;24.19
7986;BME280;4038;42.612;23.066;2022-09-25T10:33:18;93257.22;;;25.52;24.10
7986;BME280;4038;42.612;23.066;2022-09-25T10:35:46;93260.34;;;25.65;25.27
7986;BME280;4038;42.612;23.066;2022-09-25T10:38:44;93270.59;;;26.50;24.07
7986;BME280;4038;42.612;23.066;2022-09-25T10:41:19;93284.88;;;26.13;23.78
7986;BME280;4038;42.612;23.066;2022-09-25T10:43:59;93252.66;;;25.76;24.99
7986;BME280;4038;42.612;23.066;2022-09-25T10:46:32;93260.31;;;26.14;26.21
7986;BME280;4038;42.612;23.066;2022-09-25T10:49:18;93256.44;;;27.09;25.45
7986;BME280;4038;42.612;23.066;2022-09-25T10:52:07;93236.19;;;28.19;24.69
7986;BME280;4038;42.612;23.066;2022-09-25T10:54:34;93239.72;;;28.53;24.22
7986;BME280;4038;42.612;23.066;2022-09-25T10:57:00;93234.19;;;28.55;24.62
7986;BME280;4038;42.612;23.066;2022-09-25T10:59:26;93226.56;;;27.47;25.74
7986;BME280;4038;42.612;23.066;2022-09-25T11:01:53;93223.59;;;27.87;25.16
7986;BME280;4038;42.612;23.066;2022-09-25T11:04:30;93237.13;;;28.12;24.91
7986;BME280;4038;42.612;23.066;2022-09-25T11:07:02;93221.28;;;26.89;26.63
7986;BME280;4038;42.612;23.066;2022-09-25T11:09:32;93231.63;;;26.65;27.08
7986;BME280;4038;42.612;23.066;2022-09-25T11:12:10;93218.00;;;26.21;27.11
7986;BME280;4038;42.612;23.066;2022-09-25T11:14:40;93208.91;;;25.53;27.36
7986;BME280;4038;42.612;23.066;2022-09-25T11:22:43;93231.59;;;26.34;25.91
7986;BME280;4038;42.612;23.066;2022-09-25T11:34:04;93203.56;;;27.50;26.22
7986;BME280;4038;42.612;23.066;2022-09-25T11:36:55;93198.25;;;27.99;24.78
7986;BME280;4038;42.612;23.066;2022-09-25T11:42:33;93200.94;;;27.97;24.61
7986;BME280;4038;42.612;23.066;2022-09-25T11:45:05;93206.81;;;28.22;24.61
7986;BME280;4038;42.612;23.066;2022-09-25T11:50:13;93187.69;;;28.56;23.68
7986;BME280;4038;42.612;23.066;2022-09-25T11:53:11;93183.84;;;27.72;24.91
7986;BME280;4038;42.612;23.066;2022-09-25T12:09:21;93164.56;;;26.93;23.71
7986;BME280;4038;42.612;23.066;2022-09-25T12:17:14;93154.50;;;26.59;23.54
7986;BME280;4038;42.612;23.066;2022-09-25T12:19:50;93167.19;;;27.00;23.11
7986;BME280;4038;42.612;23.066;2022-09-25T12:22:57;93154.88;;;26.74;24.40
7986;BME280;4038;42.612;23.066;2022-09-25T12:26:12;93155.16;;;27.42;23.32
7986;BME280;4038;42.612;23.066;2022-09-25T12:29:10;93153.66;;;28.07;22.68
7986;BME280;4038;42.612;23.066;2022-09-25T12:37:15;93139.25;;;26.62;24.26
7986;BME280;4038;42.612;23.066;2022-09-25T12:39:50;93144.28;;;27.48;23.26
7986;BME280;4038;42.612;23.066;2022-09-25T12:42:44;93132.63;;;28.31;23.48
7986;BME280;4038;42.612;23.066;2022-09-25T12:45:22;93120.97;;;29.32;22.29
7986;BME280;4038;42.612;23.066;2022-09-25T12:50:42;93120.97;;;28.95;22.30
7986;BME280;4038;42.612;23.066;2022-09-25T12:56:49;93108.97;;;28.48;23.35
7986;BME280;4038;42.612;23.066;2022-09-25T12:59:17;93101.00;;;28.45;22.90
7986;BME280;4038;42.612;23.066;2022-09-25T13:04:51;93091.56;;;28.28;23.42
7986;BME280;4038;42.612;23.066;2022-09-25T13:07:31;93096.91;;;28.83;23.47
7986;BME280;4038;42.612;23.066;2022-09-25T13:10:03;93082.41;;;29.00;21.64
7986;BME280;4038;42.612;23.066;2022-09-25T13:12:38;93085.03;;;28.61;22.87
7986;BME280;4038;42.612;23.066;2022-09-25T13:17:34;93082.31;;;29.35;20.48
7986;BME280;4038;42.612;23.066;2022-09-25T13:23:10;93065.44;;;27.48;23.02
7986;BME280;4038;42.612;23.066;2022-09-25T13:25:46;93073.63;;;27.11;22.53
7986;BME280;4038;42.612;23.066;2022-09-25T13:28:25;93069.81;;;27.40;22.42
7986;BME280;4038;42.612;23.066;2022-09-25T13:31:22;93075.41;;;27.28;22.54
7986;BME280;4038;42.612;23.066;2022-09-25T13:33:54;93070.81;;;27.44;22.58
7986;BME280;4038;42.612;23.066;2022-09-25T13:38:51;93073.19;;;26.94;22.41
7986;BME280;4038;42.612;23.066;2022-09-25T13:41:51;93086.63;;;27.49;21.80
7986;BME280;4038;42.612;23.066;2022-09-25T13:49:53;93078.91;;;26.53;22.83
7986;BME280;4038;42.612;23.066;2022-09-25T13:52:51;93039.56;;;26.53;22.91
7986;BME280;4038;42.612;23.066;2022-09-25T13:55:40;93052.94;;;26.86;22.45
7986;BME280;4038;42.612;23.066;2022-09-25T14:03:36;93063.25;;;26.19;23.54
7986;BME280;4038;42.612;23.066;2022-09-25T14:06:04;93050.78;;;26.74;22.77
7986;BME280;4038;42.612;23.066;2022-09-25T14:08:38;93075.97;;;27.92;22.12
7986;BME280;4038;42.612;23.066;2022-09-25T14:11:07;93058.88;;;27.55;21.35
7986;BME280;4038;42.612;23.066;2022-09-25T14:13:34;93054.75;;;26.60;22.35
7986;BME280;4038;42.612;23.066;2022-09-25T14:16:01;93062.84;;;27.41;21.44
7986;BME280;4038;42.612;23.066;2022-09-25T14:18:36;93060.16;;;27.10;22.40
7986;BME280;4038;42.612;23.066;2022-09-25T14:21:03;93054.28;;;26.63;22.87
7986;BME280;4038;42.612;23.066;2022-09-25T14:23:32;93061.66;;;26.90;22.27
7986;BME280;4038;42.612;23.066;2022-09-25T14:26:03;93080.72;;;26.18;22.96
7986;BME280;4038;42.612;23.066;2022-09-25T14:28:33;93059.50;;;26.36;22.79
7986;BME280;4038;42.612;23.066;2022-09-25T14:48:23;93044.13;;;25.65;22.83
7986;BME280;4038;42.612;23.066;2022-09-25T14:50:53;93050.44;;;25.76;23.47
7986;BME280;4038;42.612;23.066;2022-09-25T14:53:25;93044.56;;;25.52;22.71
7986;BME280;4038;42.612;23.066;2022-09-25T14:55:53;93058.09;;;25.15;23.43
7986;BME280;4038;42.612;23.066;2022-09-25T14:58:22;93061.47;;;25.33;23.35
7986;BME280;4038;42.612;23.066;2022-09-25T15:00:53;93055.16;;;24.75;23.45
7986;BME280;4038;42.612;23.066;2022-09-25T15:03:26;93053.50;;;24.33;23.96
7986;BME280;4038;42.612;23.066;2022-09-25T15:05:58;93064.00;;;24.62;23.62
7986;BME280;4038;42.612;23.066;2022-09-25T15:08:34;93071.81;;;24.63;23.84
7986;BME280;4038;42.612;23.066;2022-09-25T15:11:18;93054.84;;;24.51;23.98
7986;BME280;4038;42.612;23.066;2022-09-25T15:13:44;93052.00;;;24.32;24.57
7986;BME280;4038;42.612;23.066;2022-09-25T15:16:21;93057.47;;;24.30;24.69
7986;BME280;4038;42.612;23.066;2022-09-25T15:19:18;93054.50;;;24.28;24.99
7986;BME280;4038;42.612;23.066;2022-09-25T15:21:45;93069.22;;;24.19;25.07
7986;BME280;4038;42.612;23.066;2022-09-25T15:24:14;93070.44;;;23.53;26.00
7986;BME280;4038;42.612;23.066;2022-09-25T15:26:49;93059.41;;;23.55;26.02
7986;BME280;4038;42.612;23.066;2022-09-25T15:29:20;93056.00;;;23.93;25.92
7986;BME280;4038;42.612;23.066;2022-09-25T15:31:47;93060.56;;;23.34;26.62
7986;BME280;4038;42.612;23.066;2022-09-25T15:34:22;93063.41;;;23.61;26.38
7986;BME280;4038;42.612;23.066;2022-09-25T15:36:49;93079.81;;;23.04;27.24
7986;BME280;4038;42.612;23.066;2022-09-25T15:39:20;93063.25;;;23.42;26.75
7986;BME280;4038;42.612;23.066;2022-09-25T15:41:47;93059.91;;;23.00;27.11
7986;BME280;4038;42.612;23.066;2022-09-25T15:44:22;93069.19;;;23.19;26.96
7986;BME280;4038;42.612;23.066;2022-09-25T15:52:17;93056.84;;;23.76;26.45